createdAt,value
2023-05-14T00:04:08.488Z,3.03
2023-05-14T00:09:11.511Z,3.38
2023-05-14T00:14:14.474Z,2.58
2023-05-14T00:19:18.017Z,2.75
2023-05-14T00:24:22.363Z,3.28
2023-05-14T00:29:25.396Z,3.30
2023-05-14T00:34:28.390Z,2.72
2023-05-14T00:39:31.453Z,2.67
2023-05-14T00:44:34.546Z,2.90
2023-05-14T00:49:40.260Z,3.08
2023-05-14T00:54:43.515Z,3.28
2023-05-14T00:59:46.667Z,2.83
2023-05-14T01:04:50.167Z,3.42
2023-05-14T01:10:04.387Z,3.05
2023-05-14T01:15:30.441Z,3.05
2023-05-14T01:20:33.906Z,3.70
2023-05-14T01:25:37.748Z,4.30
2023-05-14T01:30:46.506Z,3.42
2023-05-14T01:35:51.153Z,3.97
2023-05-14T01:40:55.772Z,3.95
2023-05-14T01:45:59.165Z,4.45
2023-05-14T01:51:02.928Z,4.28
2023-05-14T01:56:06.140Z,4.65
2023-05-14T02:01:09.391Z,4.45
2023-05-14T02:06:12.315Z,3.58
2023-05-14T02:11:15.419Z,3.40
2023-05-14T02:16:19.564Z,2.97
2023-05-14T02:21:22.622Z,3.25
2023-05-14T02:26:26.022Z,3.60
2023-05-14T02:31:29.096Z,3.10
2023-05-14T02:36:32.818Z,3.80
2023-05-14T02:41:35.835Z,6.78
2023-05-14T02:46:38.952Z,5.45
2023-05-14T02:51:42.263Z,4.50
2023-05-14T02:56:45.293Z,3.75
2023-05-14T03:01:48.295Z,3.38
2023-05-14T03:06:51.843Z,3.28
2023-05-14T03:11:55.434Z,2.90
2023-05-14T03:16:58.917Z,3.10
2023-05-14T03:22:02.333Z,2.63
2023-05-14T03:27:05.643Z,2.72
2023-05-14T03:32:08.726Z,2.75
2023-05-14T03:37:11.869Z,3.40
2023-05-14T03:42:14.797Z,3.00
2023-05-14T03:47:17.763Z,2.80
2023-05-14T03:52:21.012Z,2.42
2023-05-14T03:57:24.097Z,2.83
2023-05-14T04:02:27.163Z,2.60
2023-05-14T04:07:31.807Z,3.22
2023-05-14T04:12:34.881Z,3.28
2023-05-14T04:17:38.894Z,4.07
2023-05-14T04:22:41.911Z,3.88
2023-05-14T04:27:44.914Z,3.97
2023-05-14T04:32:47.989Z,4.80
2023-05-14T04:37:51.002Z,3.75
2023-05-14T04:42:53.998Z,3.55
2023-05-14T04:47:57.041Z,2.53
2023-05-14T04:53:00.006Z,2.22
2023-05-14T04:58:03.294Z,2.35
2023-05-14T05:03:06.455Z,2.20
2023-05-14T05:08:09.606Z,1.90
2023-05-14T05:13:12.570Z,2.03
2023-05-14T05:18:15.744Z,2.22
2023-05-14T05:23:18.765Z,1.92
2023-05-14T05:28:21.760Z,1.65
2023-05-14T05:33:24.751Z,1.70
2023-05-14T05:38:27.733Z,1.73
2023-05-14T05:43:30.732Z,1.42
2023-05-14T05:48:33.790Z,1.55
2023-05-14T05:53:36.809Z,1.40
2023-05-14T05:58:39.751Z,1.48
2023-05-14T06:03:42.822Z,1.45
2023-05-14T06:08:45.912Z,1.23
2023-05-14T06:13:48.894Z,1.60
2023-05-14T06:18:53.082Z,1.50
2023-05-14T06:23:56.073Z,1.55
2023-05-14T06:28:59.572Z,1.75
2023-05-14T06:34:02.643Z,1.60
2023-05-14T06:39:05.752Z,1.60
2023-05-14T06:44:08.750Z,1.42
2023-05-14T06:49:12.014Z,1.10
2023-05-14T06:54:15.330Z,1.98
2023-05-14T06:59:18.346Z,1.25
2023-05-14T07:04:21.376Z,1.42
2023-05-14T07:09:24.482Z,1.40
2023-05-14T07:14:27.428Z,1.20
2023-05-14T07:19:30.525Z,1.20
2023-05-14T07:24:33.563Z,1.50
2023-05-14T07:29:36.661Z,1.48
2023-05-14T07:34:39.687Z,1.70
2023-05-14T07:39:42.652Z,1.65
2023-05-14T07:44:46.295Z,1.48
2023-05-14T07:49:49.295Z,1.50
2023-05-14T07:54:52.456Z,1.35
2023-05-14T07:59:55.528Z,1.30
2023-05-14T08:04:58.688Z,1.45
2023-05-14T08:10:01.996Z,1.25
2023-05-14T08:15:08.689Z,1.20
2023-05-14T08:20:12.366Z,1.55
2023-05-14T08:25:15.509Z,1.15
2023-05-14T08:30:18.565Z,1.33
2023-05-14T08:35:21.642Z,1.25
2023-05-14T08:40:24.847Z,1.25
2023-05-14T08:45:34.517Z,1.05
2023-05-14T08:50:37.758Z,1.23
2023-05-14T08:55:41.000Z,1.27
2023-05-14T09:00:43.983Z,1.48
2023-05-14T09:05:48.770Z,1.35
2023-05-14T09:10:51.860Z,1.27
2023-05-14T09:15:55.816Z,1.40
2023-05-14T09:20:58.860Z,1.48
2023-05-14T09:26:06.250Z,1.35
2023-05-14T09:31:10.016Z,1.10
2023-05-14T09:36:13.299Z,1.17
2023-05-14T09:41:16.662Z,1.50
2023-05-14T09:46:19.649Z,1.23
2023-05-14T09:51:22.768Z,1.40
2023-05-14T09:56:25.825Z,1.52
2023-05-14T10:01:35.382Z,0.82
2023-05-14T10:06:39.635Z,1.00
2023-05-14T10:11:53.087Z,1.27
2023-05-14T10:16:59.791Z,1.52
2023-05-14T10:22:08.481Z,1.20
2023-05-14T10:27:11.862Z,1.10
2023-05-14T10:32:15.188Z,2.28
2023-05-14T10:37:21.226Z,1.00
2023-05-14T10:42:27.777Z,1.15
2023-05-14T10:47:32.287Z,1.13
2023-05-14T10:52:35.770Z,1.50
2023-05-14T10:57:40.891Z,1.20
2023-05-14T11:02:45.219Z,1.10
2023-05-14T11:07:49.853Z,1.30
2023-05-14T11:12:53.159Z,1.30
2023-05-14T11:17:56.197Z,1.33
2023-05-14T11:22:59.216Z,1.30
2023-05-14T11:28:02.360Z,1.17
2023-05-14T11:33:05.493Z,1.50
2023-05-14T11:38:09.344Z,1.70
2023-05-14T11:43:12.585Z,1.20
2023-05-14T11:48:15.631Z,0.93
2023-05-14T11:53:20.405Z,1.08
2023-05-14T11:58:23.514Z,0.80
2023-05-14T12:03:30.170Z,1.52
2023-05-14T12:08:33.428Z,1.20
2023-05-14T12:13:37.210Z,0.80
2023-05-14T12:18:40.435Z,1.00
2023-05-14T12:23:43.391Z,0.73
2023-05-14T12:28:48.322Z,1.02
2023-05-14T12:33:51.603Z,0.88
2023-05-14T12:39:04.389Z,1.05
2023-05-14T12:44:07.454Z,1.42
2023-05-14T12:49:11.182Z,1.40
2023-05-14T12:54:16.129Z,1.00
2023-05-14T12:59:19.160Z,1.50
2023-05-14T13:04:22.185Z,1.77
2023-05-14T13:09:25.147Z,1.63
2023-05-14T13:14:28.186Z,1.55
2023-05-14T13:19:31.280Z,1.27
2023-05-14T13:24:35.071Z,1.40
2023-05-14T13:29:38.134Z,1.20
2023-05-14T13:34:41.144Z,1.58
2023-05-14T13:39:44.120Z,1.48
2023-05-14T13:44:47.128Z,2.10
2023-05-14T13:49:50.166Z,1.73
2023-05-14T13:54:56.752Z,1.80
2023-05-14T13:59:59.781Z,2.05
2023-05-14T14:05:02.860Z,1.20
2023-05-14T14:10:08.381Z,1.13
2023-05-14T14:15:11.996Z,1.60
2023-05-14T14:20:15.047Z,1.85
2023-05-14T14:25:18.155Z,1.50
2023-05-14T14:30:21.213Z,1.77
2023-05-14T14:35:24.478Z,1.63
2023-05-14T14:40:27.783Z,1.58
2023-05-14T14:45:30.970Z,1.90
2023-05-14T14:50:34.042Z,1.80
2023-05-14T14:55:37.072Z,2.53
2023-05-14T15:00:40.620Z,2.35
2023-05-14T15:05:43.708Z,2.50
2023-05-14T15:10:47.078Z,2.65
2023-05-14T15:15:52.025Z,3.25
2023-05-14T15:20:57.027Z,3.17
2023-05-14T15:26:00.085Z,3.70
2023-05-14T15:31:03.587Z,3.70
2023-05-14T15:36:06.955Z,3.58
2023-05-14T15:41:10.176Z,4.00
2023-05-14T15:46:13.662Z,4.53
2023-05-14T15:51:16.862Z,5.30
2023-05-14T15:56:20.285Z,5.68
2023-05-14T16:01:23.397Z,6.78
2023-05-14T16:06:26.556Z,7.10
2023-05-14T16:11:30.668Z,7.00
2023-05-14T16:16:33.772Z,7.05
2023-05-14T16:21:36.844Z,6.80
2023-05-14T16:26:40.485Z,7.10
2023-05-14T16:31:43.696Z,8.38
2023-05-14T16:36:46.764Z,7.93
2023-05-14T16:41:49.679Z,8.18
2023-05-14T16:46:52.634Z,7.70
2023-05-14T16:51:55.633Z,8.27
2023-05-14T16:56:58.662Z,7.38
2023-05-14T17:02:01.737Z,7.72
2023-05-14T17:07:05.872Z,9.38
2023-05-14T17:12:09.964Z,8.93
2023-05-14T17:17:12.971Z,8.52
2023-05-14T17:22:16.134Z,9.30
2023-05-14T17:27:19.129Z,10.50
2023-05-14T17:32:22.320Z,8.70
2023-05-14T17:37:26.729Z,9.82
2023-05-14T17:42:29.734Z,9.88
2023-05-14T17:47:32.826Z,11.32
2023-05-14T17:52:35.924Z,9.18
2023-05-14T17:57:38.937Z,8.68
2023-05-14T18:02:42.009Z,8.32
2023-05-14T18:07:45.069Z,8.90
2023-05-14T18:12:48.046Z,8.65
2023-05-14T18:17:51.794Z,8.43
2023-05-14T18:22:54.774Z,8.27
2023-05-14T18:27:57.730Z,8.02
2023-05-14T18:33:00.957Z,9.02
2023-05-14T18:38:04.140Z,8.98
2023-05-14T18:43:07.379Z,7.90
2023-05-14T18:48:10.780Z,8.95
2023-05-14T18:53:13.879Z,9.02
2023-05-14T18:58:17.876Z,8.77
2023-05-14T19:03:21.019Z,8.75
2023-05-14T19:08:24.170Z,9.45
2023-05-14T19:13:28.811Z,9.23
2023-05-14T19:18:32.030Z,8.27
2023-05-14T19:23:35.018Z,8.30
2023-05-14T19:28:40.954Z,7.75
2023-05-14T19:33:43.998Z,9.30
2023-05-14T19:38:47.592Z,8.07
2023-05-14T19:43:50.530Z,8.52
2023-05-14T19:48:53.514Z,7.28
2023-05-14T19:53:56.575Z,8.02
2023-05-14T19:58:59.572Z,7.82
2023-05-14T20:04:02.739Z,8.75
2023-05-14T20:09:06.196Z,8.95
2023-05-14T20:14:09.123Z,8.35
2023-05-14T20:19:12.305Z,9.13
2023-05-14T20:24:15.286Z,9.52
2023-05-14T20:29:18.283Z,8.70
2023-05-14T20:34:21.396Z,10.32
2023-05-14T20:39:24.477Z,8.98
2023-05-14T20:44:27.517Z,9.90
2023-05-14T20:49:30.669Z,8.48
2023-05-14T20:54:36.917Z,10.60
2023-05-14T20:59:39.908Z,11.75
2023-05-14T21:04:43.146Z,12.43
2023-05-14T21:09:51.074Z,11.82
2023-05-14T21:14:54.202Z,11.10
2023-05-14T21:19:57.299Z,11.20
2023-05-14T21:25:00.379Z,11.40
2023-05-14T21:30:03.635Z,11.60
2023-05-14T21:35:09.112Z,10.65
2023-05-14T21:40:12.754Z,9.90
2023-05-14T21:45:15.852Z,9.98
2023-05-14T21:50:19.035Z,9.35
2023-05-14T21:55:22.161Z,9.98
2023-05-14T22:00:25.643Z,10.05
2023-05-14T22:05:29.440Z,9.30
2023-05-14T22:10:32.634Z,9.20
2023-05-14T22:15:35.793Z,9.85
2023-05-14T22:20:39.423Z,8.98
2023-05-14T22:25:42.721Z,8.05
2023-05-14T22:30:45.766Z,8.40
2023-05-14T22:35:48.792Z,8.40
2023-05-14T22:40:52.197Z,6.70
2023-05-14T22:45:55.246Z,5.32
2023-05-14T22:50:58.279Z,6.43
2023-05-14T22:56:01.315Z,5.70
2023-05-14T23:01:04.384Z,4.53
2023-05-14T23:06:07.618Z,3.70
2023-05-14T23:11:10.640Z,4.72
2023-05-14T23:16:13.850Z,3.97
2023-05-14T23:21:16.894Z,3.08
2023-05-14T23:26:19.845Z,5.57
2023-05-14T23:31:22.809Z,5.90
2023-05-14T23:36:25.838Z,5.75
2023-05-14T23:41:28.857Z,4.25
2023-05-14T23:46:32.121Z,3.60
2023-05-14T23:51:35.138Z,3.40
2023-05-14T23:56:38.237Z,2.85
